Wetterdaten: Mai 2010
Datum Temp Feuchte Luftdruck Regen Wind Richtung Sonnenschein UV Solar Windben
01.05.2010 11,6 C 73 % 1009,8 hPa 0,0 l/m 4,6 km/h S 5,17 h 2,2 UV-I 321 W/m 14,1 km/h
02.05.2010 10,0 C 88 % 1009,1 hPa 3,8 l/m 7,0 km/h NO 1,75 h 1,7 UV-I 197 W/m 14,9 km/h
03.05.2010 7,2 C 95 % 1012,4 hPa 2,0 l/m 1,8 km/h NW 0,00 h 0,9 UV-I 106 W/m 5,2 km/h
04.05.2010 5,8 C 77 % 1020,2 hPa 0,4 l/m 4,3 km/h N 2,17 h 1,4 UV-I 202 W/m 11,3 km/h
05.05.2010 6,8 C 69 % 1016,3 hPa 0,0 l/m 5,0 km/h N-NO 11,00 h 2,6 UV-I 422 W/m 12,5 km/h
06.05.2010 4,4 C 95 % 1004,9 hPa 13,4 l/m 12,2 km/h N-NO 0,00 h 0,6 UV-I 44 W/m 22,6 km/h
07.05.2010 5,3 C 94 % 1006,9 hPa 4,8 l/m 1,4 km/h NW 0,00 h 1,0 UV-I 98 W/m 4,0 km/h
08.05.2010 7,7 C 87 % 1010,4 hPa 0,0 l/m 1,7 km/h S-SW 0,00 h 1,2 UV-I 161 W/m 3,6 km/h
09.05.2010 10,0 C 82 % 1008,7 hPa 0,0 l/m 4,4 km/h N-NO 2,92 h 1,7 UV-I 236 W/m 9,7 km/h
10.05.2010 7,0 C 82 % 1009,5 hPa 0,4 l/m 2,0 km/h N-NO 0,25 h 1,2 UV-I 147 W/m 6,0 km/h
11.05.2010 8,8 C 85 % 1007,3 hPa 0,0 l/m 5,0 km/h N-NO 1,00 h 1,5 UV-I 155 W/m 14,5 km/h
12.05.2010 6,8 C 94 % 1008,1 hPa 1,8 l/m 6,1 km/h S-SW 0,00 h 0,7 UV-I 70 W/m 16,9 km/h
13.05.2010 6,2 C 94 % 1012,3 hPa 0,6 l/m 1,2 km/h NW 0,00 h 0,9 UV-I 91 W/m 3,6 km/h
14.05.2010 7,8 C 82 % 1011,7 hPa 0,2 l/m 2,8 km/h N-NO 0,42 h 1,5 UV-I 162 W/m 6,8 km/h
15.05.2010 6,0 C 90 % 1010,8 hPa 0,8 l/m 4,5 km/h N-NW 0,50 h 1,3 UV-I 159 W/m 12,1 km/h
16.05.2010 10,0 C 70 % 1014,8 hPa 0,0 l/m 5,7 km/h W-NW 2,67 h 1,8 UV-I 242 W/m 16,0 km/h
17.05.2010 8,3 C 90 % 1021,2 hPa 1,4 l/m 4,2 km/h S-SW 3,75 h 1,8 UV-I 249 W/m 9,6 km/h
18.05.2010 8,4 C 76 % 1025,4 hPa 0,4 l/m 10,8 km/h N-NW 2,25 h 1,6 UV-I 208 W/m 20,9 km/h
19.05.2010 8,8 C 85 % 1025,0 hPa 1,6 l/m 6,3 km/h N-NW 0,00 h 0,9 UV-I 67 W/m 12,9 km/h
20.05.2010 10,5 C 79 % 1028,4 hPa 0,4 l/m 1,7 km/h N-NW 0,17 h 1,1 UV-I 107 W/m 4,8 km/h
21.05.2010 14,0 C 73 % 1027,5 hPa 0,0 l/m 2,1 km/h N-NW 10,00 h 3,2 UV-I 435 W/m 4,0 km/h
22.05.2010 13,9 C 84 % 1024,5 hPa 0,0 l/m 2,0 km/h N-NW 8,50 h 3,0 UV-I 380 W/m 5,6 km/h
23.05.2010 15,9 C 81 % 1020,5 hPa 0,0 l/m 4,0 km/h W-NW 5,42 h 3,1 UV-I 327 W/m 8,4 km/h
24.05.2010 16,9 C 69 % 1010,4 hPa 1,2 l/m 6,7 km/h NW 9,00 h 2,9 UV-I 395 W/m 14,9 km/h
25.05.2010 13,2 C 67 % 1011,2 hPa 0,0 l/m 6,8 km/h N-NW 8,75 h 3,4 UV-I 442 W/m 16,9 km/h
26.05.2010 9,9 C 84 % 1007,4 hPa 6,6 l/m 4,0 km/h N-NO 4,50 h 1,8 UV-I 215 W/m 10,5 km/h
27.05.2010 11,7 C 85 % 1009,2 hPa 0,2 l/m 1,4 km/h N-NW 3,58 h 2,2 UV-I 250 W/m 3,2 km/h
28.05.2010 12,7 C 68 % 1013,7 hPa 0,8 l/m 3,2 km/h W-NW 5,00 h 2,3 UV-I 262 W/m 8,8 km/h
29.05.2010 13,7 C 70 % 1015,5 hPa 0,0 l/m 2,4 km/h S 8,58 h 2,8 UV-I 378 W/m 9,2 km/h
30.05.2010 10,8 C 91 % 1005,4 hPa 13,8 l/m 12,6 km/h S 2,25 h 2,3 UV-I 240 W/m 27,7 km/h
31.05.2010 9,7 C 96 % 1012,6 hPa 4,4 l/m 2,9 km/h NW 0,00 h 0,9 UV-I 86 W/m 9,3 km/h
Min-Datum 05.05.10 05.05.10 12.05.10 20 Tage 01.05.10 - - - - 01.05.10
Min-Zeit 05:00 11:55 05:45 - 03:10 - - - - 22:55
Minimum -1,2 C 40 % 1002,2 hPa - 0,0 km/h - - - - 0,0 km/h
Max-Datum 24.05.10 08.05.10 20.05.10 30.05.10 24.05.10 - 05.05.10 25.05.10 16.05.10 24.05.10
Max-Zeit 13:25 04:35 23:50 05:40 14:50 - 20:35 13:45 13:10 14:50
Maximum 23,3 C 100 % 1029,3 hPa 13,8 l/m 29,1 km/h
NW
- 10,92 h 6,9 UV-I 1136 W/m 54,7 km/h
NW
Durchschnitt 9,7 C 82 % 1013,9 hPa #59,0 l/m 4,5 km/h N-NW #99:35 h 1,8 UV-I 221 W/m 11,0 km/h

Durchschnitt Minimum Temp.5,0 C
Durchschnitt Maximum Temp.13,7 C